createdAt,value
2023-01-15T00:02:24.096Z,100820.22
2023-01-15T00:04:51.897Z,100814.73
2023-01-15T00:07:19.423Z,100809.67
2023-01-15T00:09:46.774Z,100803.45
2023-01-15T00:12:14.108Z,100797.58
2023-01-15T00:14:41.514Z,100791.05
2023-01-15T00:17:08.897Z,100783.52
2023-01-15T00:19:36.444Z,100778.41
2023-01-15T00:22:03.943Z,100775.42
2023-01-15T00:24:50.272Z,100771.04
2023-01-15T00:27:36.503Z,100761.03
2023-01-15T00:30:04.287Z,100750.57
2023-01-15T00:32:31.679Z,100742.61
2023-01-15T00:34:59.284Z,100731.30
2023-01-15T00:37:27.159Z,100721.39
2023-01-15T00:39:54.595Z,100715.71
2023-01-15T00:42:22.004Z,100705.67
2023-01-15T00:44:49.370Z,100697.11
2023-01-15T00:47:16.774Z,100691.22
2023-01-15T00:49:44.331Z,100683.75
2023-01-15T00:52:12.195Z,100672.72
2023-01-15T00:54:39.708Z,100671.46
2023-01-15T00:57:07.211Z,100666.48
2023-01-15T00:59:34.727Z,100668.14
2023-01-15T01:02:02.297Z,100667.66
2023-01-15T01:04:29.786Z,100668.98
2023-01-15T01:06:57.145Z,100671.77
2023-01-15T01:09:24.678Z,100669.09
2023-01-15T01:11:52.196Z,100665.18
2023-01-15T01:14:19.761Z,100662.02
2023-01-15T01:16:47.194Z,100657.08
2023-01-15T01:19:20.759Z,100649.66
2023-01-15T01:21:47.940Z,100643.66
2023-01-15T01:24:18.085Z,100639.27
2023-01-15T01:26:46.078Z,100637.04
2023-01-15T01:29:14.390Z,100634.17
2023-01-15T01:31:41.908Z,100631.11
2023-01-15T01:34:09.646Z,100627.96
2023-01-15T01:36:38.387Z,100624.52
2023-01-15T01:39:06.781Z,100616.61
2023-01-15T01:41:34.384Z,100610.42
2023-01-15T01:44:02.953Z,100601.14
2023-01-15T01:46:32.244Z,100595.92
2023-01-15T01:49:02.770Z,100596.67
2023-01-15T01:51:32.644Z,100599.45
2023-01-15T01:54:00.140Z,100597.47
2023-01-15T01:56:28.082Z,100600.05
2023-01-15T01:58:55.623Z,100598.56
2023-01-15T02:01:23.633Z,100599.61
2023-01-15T02:03:52.856Z,100606.56
2023-01-15T02:06:20.203Z,100613.07
2023-01-15T02:08:47.623Z,100613.81
2023-01-15T02:11:17.415Z,100619.81
2023-01-15T02:13:50.534Z,100628.77
2023-01-15T02:16:24.711Z,100641.56
2023-01-15T02:19:18.337Z,100652.09
2023-01-15T02:22:05.004Z,100667.11
2023-01-15T02:25:05.367Z,100681.73
2023-01-15T02:27:33.528Z,100701.45
2023-01-15T02:30:08.590Z,100709.11
2023-01-15T02:33:07.116Z,100725.45
2023-01-15T02:35:43.535Z,100743.34
2023-01-15T02:38:13.689Z,100753.51
2023-01-15T02:40:41.427Z,100759.17
2023-01-15T02:43:08.347Z,100764.92
2023-01-15T02:45:37.512Z,100774.83
2023-01-15T02:48:11.303Z,100785.75
2023-01-15T02:50:40.977Z,100796.49
2023-01-15T02:53:09.905Z,100806.64
2023-01-15T02:55:48.229Z,100819.98
2023-01-15T02:58:17.937Z,100839.31
2023-01-15T03:00:47.667Z,100846.41
2023-01-15T03:03:19.366Z,100854.73
2023-01-15T03:05:52.333Z,100865.86
2023-01-15T03:08:19.768Z,100875.10
2023-01-15T03:10:49.521Z,100879.02
2023-01-15T03:13:21.404Z,100888.81
2023-01-15T03:16:20.992Z,100901.75
2023-01-15T03:19:23.299Z,100910.55
2023-01-15T03:21:53.680Z,100923.68
2023-01-15T03:24:49.359Z,100925.94
2023-01-15T03:27:17.274Z,100947.27
2023-01-15T03:30:01.317Z,100952.73
2023-01-15T03:32:31.688Z,100953.13
2023-01-15T03:35:00.493Z,100957.98
2023-01-15T03:37:28.507Z,100964.48
2023-01-15T03:39:56.706Z,100967.10
2023-01-15T03:42:45.506Z,100970.83
2023-01-15T03:45:23.401Z,100970.24
2023-01-15T03:47:56.675Z,100965.92
2023-01-15T03:50:25.145Z,100972.24
2023-01-15T03:53:13.093Z,100976.05
2023-01-15T03:55:54.175Z,100983.27
2023-01-15T03:58:29.272Z,100986.31
2023-01-15T04:01:00.090Z,100989.18
2023-01-15T04:03:29.208Z,100996.92
2023-01-15T04:05:58.170Z,101002.07
2023-01-15T04:08:28.425Z,101007.38
2023-01-15T04:10:57.189Z,101010.00
2023-01-15T04:13:30.095Z,101013.54
2023-01-15T04:15:58.922Z,101008.20
2023-01-15T04:18:26.549Z,101005.27
2023-01-15T04:20:56.869Z,101008.77
2023-01-15T04:23:24.292Z,101010.83
2023-01-15T04:25:51.713Z,101015.23
2023-01-15T04:28:19.345Z,101018.60
2023-01-15T04:30:47.707Z,101019.50
2023-01-15T04:33:15.364Z,101017.40
2023-01-15T04:35:43.102Z,101022.36
2023-01-15T04:38:10.482Z,101021.37
2023-01-15T04:40:56.370Z,101019.19
2023-01-15T04:43:42.580Z,101023.43
2023-01-15T04:46:10.144Z,101023.99
2023-01-15T04:48:39.584Z,101022.77
2023-01-15T04:51:07.843Z,101026.80
2023-01-15T04:53:35.364Z,101030.14
2023-01-15T04:56:06.266Z,101032.86
2023-01-15T04:58:34.067Z,101030.27
2023-01-15T05:01:01.719Z,101023.45
2023-01-15T05:03:30.045Z,101023.55
2023-01-15T05:06:02.448Z,101024.17
2023-01-15T05:08:29.961Z,101019.47
2023-01-15T05:11:01.039Z,101018.77
2023-01-15T05:13:28.697Z,101016.34
2023-01-15T05:15:56.324Z,101011.67
2023-01-15T05:18:23.878Z,101011.81
2023-01-15T05:20:51.624Z,101014.05
2023-01-15T05:23:19.208Z,101009.35
2023-01-15T05:25:46.637Z,101004.89
2023-01-15T05:28:13.941Z,101006.64
2023-01-15T05:30:41.484Z,101008.58
2023-01-15T05:33:08.960Z,101005.91
2023-01-15T05:35:36.434Z,101002.77
2023-01-15T05:38:06.632Z,101004.11
2023-01-15T05:40:34.358Z,100998.95
2023-01-15T05:43:01.813Z,100998.36
2023-01-15T05:45:29.306Z,101002.44
2023-01-15T05:47:56.747Z,101003.38
2023-01-15T05:50:24.183Z,100996.58
2023-01-15T05:52:51.560Z,100999.98
2023-01-15T05:55:19.216Z,100999.92
2023-01-15T05:57:46.747Z,100998.93
2023-01-15T06:00:14.938Z,100998.46
2023-01-15T06:02:42.460Z,100998.41
2023-01-15T06:05:10.310Z,100999.02
2023-01-15T06:07:38.413Z,101003.60
2023-01-15T06:10:06.818Z,100998.52
2023-01-15T06:12:34.438Z,101000.70
2023-01-15T06:15:01.862Z,101000.79
2023-01-15T06:17:29.315Z,101004.50
2023-01-15T06:19:56.705Z,101005.73
2023-01-15T06:22:24.368Z,101003.17
2023-01-15T06:24:51.753Z,100996.36
2023-01-15T06:27:20.575Z,100991.16
2023-01-15T06:29:48.236Z,100997.71
2023-01-15T06:32:15.657Z,101001.50
2023-01-15T06:34:44.808Z,100995.24
2023-01-15T06:37:12.200Z,100987.74
2023-01-15T06:39:39.623Z,100989.23
2023-01-15T06:42:25.936Z,100984.25
2023-01-15T06:45:11.989Z,100973.76
2023-01-15T06:47:39.459Z,100989.84
2023-01-15T06:50:07.325Z,100985.17
2023-01-15T06:52:35.049Z,100974.07
2023-01-15T06:55:02.552Z,100975.86
2023-01-15T06:57:30.015Z,100975.04
2023-01-15T06:59:57.499Z,100973.74
2023-01-15T07:02:25.139Z,100978.89
2023-01-15T07:04:52.606Z,100969.71
2023-01-15T07:07:20.580Z,100960.29
2023-01-15T07:09:48.045Z,100971.17
2023-01-15T07:12:15.437Z,100965.27
2023-01-15T07:14:43.023Z,100967.61
2023-01-15T07:17:10.415Z,100969.32
2023-01-15T07:19:38.115Z,100965.84
2023-01-15T07:22:06.334Z,100965.85
2023-01-15T07:24:34.116Z,100964.14
2023-01-15T07:27:01.598Z,100962.09
2023-01-15T07:29:30.784Z,100965.46
2023-01-15T07:31:58.984Z,100964.77
2023-01-15T07:34:26.612Z,100963.08
2023-01-15T07:36:54.057Z,100966.66
2023-01-15T07:39:21.625Z,100961.98
2023-01-15T07:42:08.012Z,100967.09
2023-01-15T07:44:54.767Z,100964.60
2023-01-15T07:47:43.091Z,100967.82
2023-01-15T07:50:15.506Z,100965.84
2023-01-15T07:52:43.131Z,100972.79
2023-01-15T07:55:12.929Z,100975.46
2023-01-15T07:57:41.448Z,100975.45
2023-01-15T08:00:15.055Z,100977.22
2023-01-15T08:02:42.925Z,100968.93
2023-01-15T08:05:11.763Z,100965.61
2023-01-15T08:07:40.539Z,100966.06
2023-01-15T08:10:10.243Z,100968.40
2023-01-15T08:12:57.499Z,100974.47
2023-01-15T08:15:26.047Z,100971.88
2023-01-15T08:17:53.406Z,100977.16
2023-01-15T08:20:25.754Z,100978.61
2023-01-15T08:22:53.144Z,100977.87
2023-01-15T08:25:23.045Z,100978.11
2023-01-15T08:27:50.511Z,100984.35
2023-01-15T08:30:19.858Z,100984.77
2023-01-15T08:32:47.401Z,100983.26
2023-01-15T08:35:14.955Z,100983.48
2023-01-15T08:37:42.940Z,100980.33
2023-01-15T08:40:11.680Z,100977.89
2023-01-15T08:42:39.402Z,100977.16
2023-01-15T08:45:07.776Z,100973.71
2023-01-15T08:47:35.250Z,100977.73
2023-01-15T08:50:02.729Z,100978.83
2023-01-15T08:52:30.297Z,100980.40
2023-01-15T08:54:57.694Z,100982.55
2023-01-15T08:57:25.165Z,100984.04
2023-01-15T08:59:52.547Z,100987.84
2023-01-15T09:02:20.045Z,100988.69
2023-01-15T09:04:47.697Z,100995.63
2023-01-15T09:07:15.284Z,101000.10
2023-01-15T09:09:42.873Z,100995.17
2023-01-15T09:12:10.533Z,100997.35
2023-01-15T09:14:58.504Z,100998.48
2023-01-15T09:17:25.387Z,101004.67
2023-01-15T09:19:52.926Z,101002.96
2023-01-15T09:22:20.318Z,101004.27
2023-01-15T09:24:47.746Z,101007.25
2023-01-15T09:27:15.140Z,101005.23
2023-01-15T09:29:42.644Z,101004.20
2023-01-15T09:32:10.832Z,101007.52
2023-01-15T09:34:38.407Z,101005.06
2023-01-15T09:37:05.832Z,101004.02
2023-01-15T09:39:33.394Z,101006.16
2023-01-15T09:42:18.795Z,101005.11
2023-01-15T09:44:49.157Z,101008.90
2023-01-15T09:47:32.175Z,101010.70
2023-01-15T09:50:54.327Z,101013.33
2023-01-15T09:53:24.573Z,101010.13
2023-01-15T09:55:51.685Z,101015.95
2023-01-15T09:58:21.355Z,101021.97
2023-01-15T10:00:49.967Z,101025.86
2023-01-15T10:03:29.842Z,101027.36
2023-01-15T10:06:14.432Z,101028.85
2023-01-15T10:08:46.685Z,101029.10
2023-01-15T10:11:22.430Z,101031.73
2023-01-15T10:13:56.504Z,101033.88
2023-01-15T10:16:25.956Z,101031.02
2023-01-15T10:18:53.733Z,101031.27
2023-01-15T10:22:00.125Z,101029.67
2023-01-15T10:24:33.311Z,101027.98
2023-01-15T10:27:00.884Z,101028.23
2023-01-15T10:29:40.849Z,101029.55
2023-01-15T10:32:14.516Z,101028.91
2023-01-15T10:35:08.150Z,101030.38
2023-01-15T10:37:45.006Z,101027.40
2023-01-15T10:40:51.624Z,101027.01
2023-01-15T10:43:38.232Z,101030.31
2023-01-15T10:46:13.110Z,101024.95
2023-01-15T10:48:41.131Z,101029.92
2023-01-15T10:51:20.461Z,101027.92
2023-01-15T10:53:50.361Z,101026.83
2023-01-15T10:56:32.028Z,101028.48
2023-01-15T10:59:08.976Z,101027.23
2023-01-15T11:01:36.968Z,101028.77
2023-01-15T11:04:04.646Z,101027.27
2023-01-15T11:06:33.028Z,101027.21
2023-01-15T11:09:10.951Z,101029.08
2023-01-15T11:11:59.367Z,101026.29
2023-01-15T11:14:52.090Z,101023.20
2023-01-15T11:17:38.863Z,101021.22
2023-01-15T11:20:19.299Z,101021.69
2023-01-15T11:22:46.825Z,101012.06
2023-01-15T11:25:14.381Z,101012.71
2023-01-15T11:27:41.929Z,101013.31
2023-01-15T11:30:26.593Z,101015.20
2023-01-15T11:32:58.352Z,101011.60
2023-01-15T11:35:26.765Z,101014.40
2023-01-15T11:38:05.584Z,101012.06
2023-01-15T11:40:33.150Z,101013.91
2023-01-15T11:43:19.416Z,101007.83
2023-01-15T11:46:09.784Z,101000.86
2023-01-15T11:49:06.997Z,100998.49
2023-01-15T11:51:46.659Z,101002.27
2023-01-15T11:54:14.167Z,101001.95
2023-01-15T11:56:45.229Z,101001.94
2023-01-15T11:59:14.058Z,100999.16
2023-01-15T12:01:58.583Z,100998.35
2023-01-15T12:04:45.382Z,100999.81
2023-01-15T12:07:14.201Z,100999.00
2023-01-15T12:09:52.450Z,100993.77
2023-01-15T12:12:44.324Z,100990.38
2023-01-15T12:15:11.818Z,100988.19
2023-01-15T12:18:06.316Z,100990.92
2023-01-15T12:20:36.641Z,100991.77
2023-01-15T12:23:20.853Z,100990.62
2023-01-15T12:25:56.775Z,100989.89
2023-01-15T12:28:35.792Z,100989.80
2023-01-15T12:31:08.914Z,100991.01
2023-01-15T12:33:36.451Z,100992.13
2023-01-15T12:36:10.538Z,100987.23
2023-01-15T12:38:41.070Z,100989.62
2023-01-15T12:41:12.499Z,100990.52
2023-01-15T12:43:58.559Z,100988.68
2023-01-15T12:46:29.421Z,100982.61
2023-01-15T12:49:12.200Z,100980.19
2023-01-15T12:52:05.638Z,100980.54
2023-01-15T12:54:39.834Z,100976.15
2023-01-15T12:57:17.230Z,100978.98
2023-01-15T12:59:50.760Z,100975.81
2023-01-15T13:02:30.456Z,100977.66
2023-01-15T13:05:04.923Z,100976.44
2023-01-15T13:07:43.462Z,100972.41
2023-01-15T16:49:21.388Z,100691.19
2023-01-15T16:51:59.440Z,100697.47
2023-01-15T16:54:29.893Z,100685.79
2023-01-15T16:57:01.822Z,100670.89
2023-01-15T16:59:30.643Z,100662.50
2023-01-15T17:02:05.921Z,100646.40
2023-01-15T17:04:38.153Z,100632.16
2023-01-15T17:07:39.504Z,100618.64
2023-01-15T17:10:19.717Z,100607.91
2023-01-15T17:12:47.779Z,100585.77
2023-01-15T17:15:20.067Z,100572.76
2023-01-15T17:17:48.101Z,100559.19
2023-01-15T17:20:16.291Z,100536.11
2023-01-15T17:22:45.291Z,100508.91
2023-01-15T17:25:31.419Z,100478.10
2023-01-15T17:27:59.780Z,100459.45
2023-01-15T17:30:34.930Z,100450.16
2023-01-15T17:33:06.639Z,100434.91
2023-01-15T17:35:38.653Z,100416.95
2023-01-15T17:38:07.800Z,100408.95
2023-01-15T17:40:35.620Z,100392.16
2023-01-15T17:43:04.350Z,100381.54
2023-01-15T17:45:33.222Z,100370.31
2023-01-15T17:48:02.888Z,100357.23
2023-01-15T17:50:30.703Z,100333.02
2023-01-15T17:53:01.065Z,100317.32
2023-01-15T17:55:47.577Z,100313.48
2023-01-15T17:58:33.948Z,100334.59
2023-01-15T18:01:21.332Z,100371.25
2023-01-15T18:04:09.832Z,100409.61
2023-01-15T18:06:37.876Z,100455.68
2023-01-15T18:09:06.071Z,100489.34
2023-01-15T18:11:33.549Z,100522.23
2023-01-15T18:14:01.221Z,100551.55
2023-01-15T18:16:29.225Z,100584.36
2023-01-15T18:18:56.997Z,100608.30
2023-01-15T18:21:24.834Z,100628.35
2023-01-15T18:23:52.510Z,100636.64
2023-01-15T18:26:20.267Z,100648.04
2023-01-15T18:28:48.763Z,100658.75
2023-01-15T18:31:17.482Z,100665.95
2023-01-15T18:33:46.082Z,100670.95
2023-01-15T18:36:14.339Z,100674.58
2023-01-15T18:38:47.242Z,100677.74
2023-01-15T18:41:35.308Z,100685.52
2023-01-15T18:44:31.394Z,100685.95
2023-01-15T18:47:01.272Z,100688.48
2023-01-15T18:49:29.770Z,100693.83
2023-01-15T18:52:17.047Z,100698.45
2023-01-15T18:54:44.866Z,100705.58
2023-01-15T18:57:12.473Z,100707.90
2023-01-15T18:59:39.905Z,100708.63
2023-01-15T19:02:07.511Z,100709.38
2023-01-15T19:04:35.208Z,100711.30
2023-01-15T19:07:04.376Z,100713.63
2023-01-15T19:09:32.316Z,100715.09
2023-01-15T19:12:00.039Z,100719.43
2023-01-15T19:14:46.364Z,100720.66
2023-01-15T19:17:34.155Z,100722.94
2023-01-15T19:20:02.177Z,100722.04
2023-01-15T19:22:48.975Z,100725.00
2023-01-15T19:25:17.016Z,100726.03
2023-01-15T19:27:44.709Z,100728.98
2023-01-15T19:30:12.829Z,100735.80
2023-01-15T19:32:40.563Z,100733.15
2023-01-15T19:35:08.812Z,100735.76
2023-01-15T19:37:39.734Z,100733.10
2023-01-15T19:40:14.147Z,100735.86
2023-01-15T19:43:00.824Z,100740.45
2023-01-15T19:45:47.255Z,100739.48
2023-01-15T19:48:34.738Z,100743.77
2023-01-15T19:51:02.849Z,100747.39
2023-01-15T19:53:30.492Z,100747.43
2023-01-15T19:55:57.981Z,100748.73
2023-01-15T19:58:25.652Z,100753.46
2023-01-15T20:00:53.362Z,100754.96
2023-01-15T20:03:20.949Z,100760.32
2023-01-15T20:05:48.685Z,100759.42
2023-01-15T20:08:18.017Z,100761.45
2023-01-15T20:10:46.712Z,100759.38
2023-01-15T20:13:38.352Z,100758.02
2023-01-15T20:16:11.086Z,100757.29
2023-01-15T20:18:39.446Z,100762.26
2023-01-15T20:21:08.316Z,100768.80
2023-01-15T20:23:36.938Z,100766.59
2023-01-15T20:26:05.917Z,100765.51
2023-01-15T20:28:36.054Z,100769.34
2023-01-15T20:31:04.287Z,100767.39
2023-01-15T20:33:31.933Z,100769.27
2023-01-15T20:36:04.133Z,100771.60
2023-01-15T20:38:32.028Z,100770.45
2023-01-15T20:41:19.449Z,100770.51
2023-01-15T20:44:05.906Z,100765.53
2023-01-15T20:46:33.417Z,100764.75
2023-01-15T20:49:20.614Z,100765.45
2023-01-15T20:51:48.129Z,100765.06
2023-01-15T20:54:15.753Z,100769.27
2023-01-15T20:56:43.123Z,100777.35
2023-01-15T20:59:10.646Z,100775.48
2023-01-15T21:01:40.687Z,100780.02
2023-01-15T21:04:10.127Z,100782.85
2023-01-15T21:06:37.651Z,100788.30
2023-01-15T21:09:06.332Z,100785.09
2023-01-15T21:11:33.930Z,100787.60
2023-01-15T21:14:01.425Z,100785.38
2023-01-15T21:16:29.155Z,100781.56
2023-01-15T21:18:56.788Z,100782.77
2023-01-15T21:21:24.439Z,100783.02
2023-01-15T21:23:51.911Z,100782.08
2023-01-15T21:26:19.588Z,100776.74
2023-01-15T21:28:46.966Z,100779.28
2023-01-15T21:31:14.916Z,100774.73
2023-01-15T21:33:42.514Z,100775.29
2023-01-15T21:36:11.532Z,100778.71
2023-01-15T21:38:39.584Z,100773.10
2023-01-15T21:41:11.471Z,100782.35
2023-01-15T21:43:57.844Z,100772.50
2023-01-15T21:46:28.254Z,100770.48
2023-01-15T21:48:56.437Z,100774.59
2023-01-15T21:51:24.730Z,100777.91
2023-01-15T21:53:52.107Z,100776.80
2023-01-15T21:56:19.498Z,100776.98
2023-01-15T21:58:46.961Z,100778.19
2023-01-15T22:01:15.294Z,100777.13
2023-01-15T22:03:42.780Z,100778.23
2023-01-15T22:06:10.357Z,100777.95
2023-01-15T22:08:37.816Z,100777.92
2023-01-15T22:11:06.407Z,100778.86
2023-01-15T22:13:40.038Z,100778.77
2023-01-15T22:16:08.531Z,100775.77
2023-01-15T22:18:36.124Z,100775.48
2023-01-15T22:21:07.671Z,100772.73
2023-01-15T22:23:35.117Z,100768.91
2023-01-15T22:26:02.454Z,100764.36
2023-01-15T22:28:29.721Z,100768.52
2023-01-15T22:30:57.122Z,100764.67
2023-01-15T22:33:24.529Z,100760.40
2023-01-15T22:35:59.066Z,100752.58
2023-01-15T22:38:26.475Z,100756.08
2023-01-15T22:40:53.868Z,100753.67
2023-01-15T22:43:21.248Z,100753.86
2023-01-15T22:45:48.821Z,100752.36
2023-01-15T22:48:16.380Z,100747.97
2023-01-15T22:50:43.828Z,100744.85
2023-01-15T22:53:11.365Z,100742.34
2023-01-15T22:55:38.729Z,100738.48
2023-01-15T22:58:06.344Z,100739.39
2023-01-15T23:00:33.718Z,100734.46
2023-01-15T23:03:07.197Z,100732.98
2023-01-15T23:05:39.318Z,100731.44
2023-01-15T23:08:06.992Z,100727.20
2023-01-15T23:10:34.604Z,100730.48
2023-01-15T23:13:02.009Z,100725.40
2023-01-15T23:15:29.444Z,100730.95
2023-01-15T23:17:56.979Z,100726.02
2023-01-15T23:20:24.496Z,100722.02
2023-01-15T23:22:51.874Z,100721.42
2023-01-15T23:25:19.093Z,100723.12
2023-01-15T23:27:46.460Z,100718.12
2023-01-15T23:30:14.301Z,100716.97
2023-01-15T23:32:42.463Z,100715.52
2023-01-15T23:35:10.224Z,100716.91
2023-01-15T23:37:37.744Z,100714.52
2023-01-15T23:40:06.016Z,100708.82
2023-01-15T23:42:52.164Z,100708.51
2023-01-15T23:45:38.463Z,100710.90
2023-01-15T23:48:06.076Z,100708.27
2023-01-15T23:50:33.478Z,100708.11
2023-01-15T23:53:00.972Z,100706.33
2023-01-15T23:55:28.437Z,100700.94
2023-01-15T23:57:55.833Z,100697.28
